createdAt,value
2018-04-26T00:00:43.972Z,18.77
2018-04-26T00:03:11.539Z,18.81
2018-04-26T00:05:39.076Z,18.86
2018-04-26T00:08:06.604Z,18.78
2018-04-26T00:10:34.174Z,18.67
2018-04-26T00:13:01.706Z,18.63
2018-04-26T00:15:29.237Z,18.59
2018-04-26T00:17:56.766Z,18.81
2018-04-26T00:20:24.306Z,18.73
2018-04-26T00:22:51.875Z,18.71
2018-04-26T00:25:19.418Z,18.60
2018-04-26T00:27:46.956Z,18.36
2018-04-26T00:30:14.538Z,18.24
2018-04-26T00:32:42.076Z,17.94
2018-04-26T00:35:09.610Z,18.07
2018-04-26T00:37:37.150Z,17.89
2018-04-26T00:40:04.714Z,18.08
2018-04-26T00:42:32.256Z,18.18
2018-04-26T00:44:59.791Z,18.19
2018-04-26T00:47:27.323Z,18.33
2018-04-26T00:49:54.852Z,18.16
2018-04-26T00:52:22.385Z,17.97
2018-04-26T00:54:49.915Z,17.89
2018-04-26T00:57:17.440Z,17.76
2018-04-26T00:59:44.983Z,17.75
2018-04-26T01:02:12.585Z,17.76
2018-04-26T01:04:40.119Z,17.80
2018-04-26T01:07:07.649Z,17.77
2018-04-26T01:09:35.250Z,17.76
2018-04-26T01:12:02.748Z,17.82
2018-04-26T01:14:30.318Z,17.93
2018-04-26T01:16:57.848Z,17.85
2018-04-26T01:19:25.376Z,17.83
2018-04-26T01:21:52.910Z,17.48
2018-04-26T01:24:20.439Z,17.31
2018-04-26T01:26:48.014Z,17.35
2018-04-26T01:29:15.558Z,17.30
2018-04-26T01:31:43.094Z,17.45
2018-04-26T01:34:10.640Z,17.43
2018-04-26T01:36:49.938Z,17.58
2018-04-26T01:39:17.494Z,17.57
2018-04-26T01:41:45.027Z,17.64
2018-04-26T01:44:12.600Z,17.64
2018-04-26T01:46:40.133Z,17.62
2018-04-26T01:49:07.667Z,17.56
2018-04-26T01:51:35.203Z,17.57
2018-04-26T01:54:02.789Z,17.68
2018-04-26T01:56:30.343Z,17.51
2018-04-26T01:58:57.937Z,17.48
2018-04-26T02:01:25.528Z,17.52
2018-04-26T02:03:53.081Z,17.70
2018-04-26T02:06:20.636Z,17.59
2018-04-26T02:08:48.180Z,17.40
2018-04-26T02:11:15.710Z,17.04
2018-04-26T02:13:43.267Z,17.18
2018-04-26T02:16:10.844Z,17.24
2018-04-26T02:18:38.381Z,17.37
2018-04-26T02:21:05.916Z,17.62
2018-04-26T02:23:33.500Z,17.59
2018-04-26T02:26:01.044Z,17.55
2018-04-26T02:28:28.615Z,17.69
2018-04-26T02:30:56.187Z,17.68
2018-04-26T02:33:23.773Z,17.47
2018-04-26T02:35:51.328Z,17.35
2018-04-26T02:38:18.900Z,17.47
2018-04-26T02:40:46.442Z,17.45
2018-04-26T02:43:14.043Z,17.46
2018-04-26T02:45:41.576Z,17.53
2018-04-26T02:48:09.147Z,17.44
2018-04-26T02:50:36.716Z,17.45
2018-04-26T02:53:04.271Z,17.44
2018-04-26T02:55:31.840Z,17.36
2018-04-26T02:57:59.372Z,17.32
2018-04-26T03:00:26.959Z,17.16
2018-04-26T03:02:54.488Z,16.89
2018-04-26T03:05:22.043Z,17.17
2018-04-26T03:07:49.580Z,17.26
2018-04-26T03:10:17.200Z,17.21
2018-04-26T03:12:44.699Z,17.09
2018-04-26T03:15:12.240Z,17.23
2018-04-26T03:17:39.782Z,17.30
2018-04-26T03:20:07.312Z,17.39
2018-04-26T03:22:34.838Z,17.48
2018-04-26T03:25:02.384Z,17.55
2018-04-26T03:27:29.931Z,17.41
2018-04-26T03:29:57.488Z,17.20
2018-04-26T03:32:25.035Z,17.11
2018-04-26T03:34:52.579Z,17.16
2018-04-26T03:37:20.188Z,17.16
2018-04-26T03:39:47.679Z,17.25
2018-04-26T03:42:15.219Z,16.88
2018-04-26T03:44:42.799Z,16.49
2018-04-26T03:47:10.340Z,16.04
2018-04-26T03:49:37.872Z,16.19
2018-04-26T03:52:05.409Z,15.92
2018-04-26T03:54:32.965Z,15.78
2018-04-26T03:57:00.551Z,15.75
2018-04-26T03:59:28.090Z,15.77
2018-04-26T04:02:07.372Z,15.74
2018-04-26T04:04:46.739Z,15.69
2018-04-26T04:07:14.279Z,15.56
2018-04-26T04:09:41.815Z,15.54
2018-04-26T04:12:09.356Z,15.62
2018-04-26T04:14:36.888Z,15.76
2018-04-26T04:17:04.419Z,15.67
2018-04-26T04:19:31.959Z,15.94
2018-04-26T04:21:59.543Z,16.49
2018-04-26T04:24:27.083Z,16.66
2018-04-26T04:26:54.642Z,17.18
2018-04-26T04:29:22.171Z,17.41
2018-04-26T04:31:49.703Z,17.63
2018-04-26T04:34:17.241Z,17.63
2018-04-26T04:36:44.794Z,17.91
2018-04-26T04:39:12.375Z,18.06
2018-04-26T04:41:39.913Z,18.30
2018-04-26T04:44:07.500Z,18.63
2018-04-26T04:46:35.034Z,18.95
2018-04-26T04:49:02.616Z,19.13
2018-04-26T04:51:30.169Z,19.50
2018-04-26T04:53:57.698Z,19.78
2018-04-26T04:56:25.226Z,20.19
2018-04-26T04:58:52.766Z,20.08
2018-04-26T05:01:20.352Z,19.72
2018-04-26T05:03:47.886Z,20.16
2018-04-26T05:06:15.419Z,20.28
2018-04-26T05:08:42.968Z,20.14
2018-04-26T05:11:10.547Z,20.85
2018-04-26T05:13:38.075Z,20.74
2018-04-26T05:16:05.629Z,20.69
2018-04-26T05:18:33.183Z,21.37
2018-04-26T05:21:00.724Z,20.45
2018-04-26T05:23:28.260Z,20.82
2018-04-26T05:25:55.812Z,20.75
2018-04-26T05:28:23.392Z,21.34
2018-04-26T05:30:50.965Z,21.78
2018-04-26T05:33:18.499Z,22.06
2018-04-26T05:35:46.036Z,22.36
2018-04-26T05:38:13.567Z,22.51
2018-04-26T05:40:41.109Z,22.28
2018-04-26T05:43:08.655Z,22.78
2018-04-26T05:45:36.202Z,23.07
2018-04-26T05:48:03.799Z,23.55
2018-04-26T05:50:31.352Z,23.64
2018-04-26T05:52:58.887Z,24.06
2018-04-26T05:55:26.429Z,23.92
2018-04-26T05:57:53.959Z,24.41
2018-04-26T06:00:21.487Z,24.67
2018-04-26T06:02:49.893Z,24.86
2018-04-26T06:05:17.443Z,24.29
2018-04-26T06:07:44.996Z,23.65
2018-04-26T06:10:12.533Z,23.32
2018-04-26T06:12:40.059Z,23.34
2018-04-26T06:15:07.593Z,23.73
2018-04-26T06:17:35.136Z,24.45
2018-04-26T06:20:02.670Z,24.73
2018-04-26T06:22:30.228Z,25.23
2018-04-26T06:24:57.816Z,25.70
2018-04-26T06:27:25.325Z,26.18
2018-04-26T06:29:52.863Z,26.28
2018-04-26T06:32:20.437Z,26.52
2018-04-26T06:34:47.969Z,25.68
2018-04-26T06:37:15.500Z,25.92
2018-04-26T06:39:43.032Z,25.59
2018-04-26T06:42:10.560Z,26.18
2018-04-26T06:44:38.105Z,26.50
2018-04-26T06:47:05.684Z,26.91
2018-04-26T06:49:33.243Z,27.23
2018-04-26T06:52:00.781Z,26.67
2018-04-26T06:54:28.319Z,26.71
2018-04-26T06:56:55.863Z,27.30
2018-04-26T06:59:23.450Z,26.93
2018-04-26T07:01:51.041Z,26.42
2018-04-26T07:04:18.580Z,27.07
2018-04-26T07:06:46.117Z,27.85
2018-04-26T07:09:13.687Z,28.25
2018-04-26T07:11:41.236Z,27.81
2018-04-26T07:14:08.831Z,28.45
2018-04-26T07:16:36.370Z,28.41
2018-04-26T07:19:03.947Z,28.04
2018-04-26T07:21:31.541Z,28.60
2018-04-26T07:23:59.082Z,28.23
2018-04-26T07:26:26.625Z,28.11
2018-04-26T07:28:54.263Z,28.02
2018-04-26T07:31:21.775Z,28.42
2018-04-26T07:33:49.363Z,28.31
2018-04-26T07:36:16.907Z,28.42
2018-04-26T07:38:44.445Z,29.85
2018-04-26T07:41:12.009Z,28.60
2018-04-26T07:43:39.594Z,29.27
2018-04-26T07:46:07.184Z,29.07
2018-04-26T07:48:34.716Z,27.48
2018-04-26T07:51:02.315Z,28.10
2018-04-26T07:56:51.359Z,30.10
2018-04-26T07:59:19.679Z,29.43
2018-04-26T08:01:47.307Z,30.01
2018-04-26T08:04:14.794Z,28.87
2018-04-26T08:06:42.489Z,28.19
2018-04-26T08:09:10.805Z,28.55
2018-04-26T08:11:38.371Z,28.97
2018-04-26T08:14:05.928Z,30.04
2018-04-26T08:16:33.472Z,29.76
2018-04-26T08:19:01.021Z,31.00
2018-04-26T08:21:29.421Z,30.09
2018-04-26T08:23:56.959Z,29.31
2018-04-26T08:26:24.509Z,30.55
2018-04-26T08:28:52.048Z,29.61
2018-04-26T08:31:19.582Z,31.28
2018-04-26T08:33:47.124Z,31.50
2018-04-26T08:36:14.659Z,31.11
2018-04-26T08:38:42.216Z,30.48
2018-04-26T08:41:09.756Z,30.59
2018-04-26T08:43:37.316Z,30.68
2018-04-26T08:46:04.857Z,31.29
2018-04-26T08:48:32.396Z,31.92
2018-04-26T08:50:59.945Z,32.01
2018-04-26T08:53:27.490Z,31.90
2018-04-26T08:55:55.037Z,31.70
2018-04-26T08:58:22.645Z,31.48
2018-04-26T09:00:50.224Z,31.75
2018-04-26T09:03:17.756Z,32.23
2018-04-26T09:05:45.330Z,32.14
2018-04-26T09:08:12.922Z,33.01
2018-04-26T09:10:40.477Z,32.53
2018-04-26T09:13:08.045Z,32.83
2018-04-26T09:15:35.638Z,33.55
2018-04-26T09:18:03.151Z,33.39
2018-04-26T09:20:30.699Z,33.55
2018-04-26T09:22:58.277Z,34.50
2018-04-26T09:25:25.821Z,34.11
2018-04-26T09:27:53.392Z,34.42
2018-04-26T09:30:20.992Z,33.53
2018-04-26T09:32:48.538Z,32.94
2018-04-26T09:35:16.124Z,33.73
2018-04-26T09:37:43.709Z,34.16
2018-04-26T09:40:11.257Z,34.82
2018-04-26T09:42:38.788Z,35.40
2018-04-26T09:45:06.331Z,34.04
2018-04-26T09:47:33.863Z,33.49
2018-04-26T09:50:01.397Z,32.69
2018-04-26T09:52:28.961Z,31.68
2018-04-26T09:54:56.498Z,33.22
2018-04-26T09:57:24.047Z,34.50
2018-04-26T09:59:51.599Z,35.25
2018-04-26T10:02:25.418Z,34.58
2018-04-26T10:04:56.435Z,34.86
2018-04-26T10:07:23.971Z,36.27
2018-04-26T10:09:51.532Z,36.00
2018-04-26T10:12:19.078Z,35.32
2018-04-26T10:14:46.665Z,35.20
2018-04-26T10:17:14.208Z,36.40
2018-04-26T10:19:41.733Z,35.87
2018-04-26T10:22:09.271Z,33.95
2018-04-26T10:24:36.798Z,32.90
2018-04-26T10:27:04.396Z,33.02
2018-04-26T10:29:31.938Z,34.00
2018-04-26T10:31:59.466Z,34.68
2018-04-26T10:34:27.003Z,35.39
2018-04-26T10:36:54.660Z,36.00
2018-04-26T10:39:22.215Z,36.76
2018-04-26T10:41:49.801Z,35.49
2018-04-26T10:44:17.405Z,35.76
2018-04-26T10:46:44.884Z,35.13
2018-04-26T10:49:12.424Z,35.07
2018-04-26T10:51:40.005Z,34.90
2018-04-26T10:54:07.530Z,35.28
2018-04-26T10:56:35.070Z,35.47
2018-04-26T10:59:02.657Z,35.12
2018-04-26T11:01:30.188Z,35.23
2018-04-26T11:03:57.730Z,35.67
2018-04-26T11:06:25.290Z,35.55
2018-04-26T11:08:52.837Z,34.75
2018-04-26T11:11:20.457Z,35.11
2018-04-26T11:13:47.935Z,36.12
2018-04-26T11:16:15.488Z,34.59
2018-04-26T11:18:43.014Z,34.61
2018-04-26T11:21:10.558Z,34.62
2018-04-26T11:23:38.096Z,35.33
2018-04-26T11:26:05.629Z,35.96
2018-04-26T11:28:33.161Z,36.28
2018-04-26T11:31:01.030Z,35.84
2018-04-26T11:33:28.545Z,34.90
2018-04-26T11:35:56.116Z,33.67
2018-04-26T11:38:23.684Z,33.59
2018-04-26T11:40:51.216Z,32.53
2018-04-26T11:43:18.791Z,33.56
2018-04-26T11:45:46.314Z,35.02
2018-04-26T11:48:13.903Z,34.84
2018-04-26T11:50:41.445Z,33.78
2018-04-26T11:53:09.010Z,33.30
2018-04-26T11:55:36.547Z,32.53
2018-04-26T11:58:04.118Z,31.06
2018-04-26T12:00:31.723Z,31.33
2018-04-26T12:02:59.278Z,31.28
2018-04-26T12:05:26.804Z,31.05
2018-04-26T12:07:54.375Z,30.76
2018-04-26T12:10:21.909Z,30.58
2018-04-26T12:12:49.483Z,30.30
2018-04-26T12:15:17.017Z,30.01
2018-04-26T12:17:44.597Z,29.72
2018-04-26T12:20:12.140Z,29.77
2018-04-26T12:22:39.734Z,29.25
2018-04-26T12:25:07.267Z,29.08
2018-04-26T12:27:34.840Z,28.92
2018-04-26T12:30:04.091Z,29.27
2018-04-26T12:32:31.627Z,29.41
2018-04-26T12:34:59.212Z,29.69
2018-04-26T12:37:26.743Z,29.71
2018-04-26T12:39:54.344Z,29.70
2018-04-26T12:42:21.978Z,29.36
2018-04-26T12:44:49.484Z,29.36
2018-04-26T12:47:17.015Z,29.56
2018-04-26T12:49:44.602Z,29.78
2018-04-26T12:52:12.136Z,29.68
2018-04-26T12:54:39.688Z,29.15
2018-04-26T12:57:07.223Z,28.53
2018-04-26T12:59:34.750Z,27.76
2018-04-26T13:02:02.314Z,27.25
2018-04-26T13:04:29.895Z,27.14
2018-04-26T13:06:57.418Z,27.18
2018-04-26T13:09:24.952Z,27.32
2018-04-26T13:11:52.536Z,27.58
2018-04-26T13:14:20.063Z,27.75
2018-04-26T13:16:47.665Z,28.07
2018-04-26T13:19:15.208Z,28.44
2018-04-26T13:21:42.748Z,28.67
2018-04-26T13:24:10.284Z,28.94
2018-04-26T13:26:37.816Z,28.91
2018-04-26T13:29:05.359Z,28.80
2018-04-26T13:31:32.905Z,28.90
2018-04-26T13:34:00.431Z,29.42
2018-04-26T13:36:27.961Z,29.43
2018-04-26T13:38:55.493Z,29.25
2018-04-26T13:41:23.020Z,29.43
2018-04-26T13:43:50.546Z,29.34
2018-04-26T13:46:18.189Z,29.02
2018-04-26T13:48:45.723Z,29.24
2018-04-26T13:51:13.252Z,29.04
2018-04-26T13:53:40.787Z,29.10
2018-04-26T13:56:08.347Z,29.27
2018-04-26T13:58:36.811Z,29.46
2018-04-26T14:01:04.340Z,29.39
2018-04-26T14:03:31.903Z,29.42
2018-04-26T14:05:59.428Z,29.50
2018-04-26T14:08:26.960Z,29.83
2018-04-26T14:10:54.560Z,30.08
2018-04-26T14:13:22.096Z,30.28
2018-04-26T14:15:49.659Z,29.93
2018-04-26T14:18:17.191Z,29.94
2018-04-26T14:20:44.719Z,30.32
2018-04-26T14:23:12.271Z,30.44
2018-04-26T14:25:39.809Z,30.35
2018-04-26T14:28:07.398Z,30.25
2018-04-26T14:30:34.943Z,30.04
2018-04-26T14:33:02.475Z,29.84
2018-04-26T14:35:30.063Z,29.91
2018-04-26T14:37:57.606Z,29.89
2018-04-26T14:40:25.139Z,29.73
2018-04-26T14:42:52.677Z,29.66
2018-04-26T14:45:20.218Z,29.27
2018-04-26T14:47:47.771Z,29.55
2018-04-26T14:50:15.301Z,29.69
2018-04-26T14:52:42.841Z,29.78
2018-04-26T14:55:10.372Z,29.67
2018-04-26T14:57:37.915Z,29.35
2018-04-26T15:00:05.491Z,29.39
2018-04-26T15:02:33.014Z,29.42
2018-04-26T15:05:00.544Z,29.26
2018-04-26T15:07:28.072Z,29.49
2018-04-26T15:09:55.616Z,29.52
2018-04-26T15:12:23.155Z,29.31
2018-04-26T15:14:50.706Z,29.44
2018-04-26T15:17:18.245Z,29.43
2018-04-26T15:19:45.775Z,29.12
2018-04-26T15:22:13.320Z,29.35
2018-04-26T15:24:40.859Z,29.19
2018-04-26T15:27:08.404Z,29.22
2018-04-26T15:29:35.944Z,29.05
2018-04-26T15:32:03.476Z,28.65
2018-04-26T15:34:30.998Z,28.21
2018-04-26T15:36:58.642Z,28.28
2018-04-26T15:39:26.190Z,28.07
2018-04-26T15:41:53.779Z,28.10
2018-04-26T15:44:21.356Z,28.04
2018-04-26T15:46:48.868Z,28.04
2018-04-26T15:49:16.459Z,27.84
2018-04-26T15:51:43.991Z,27.44
2018-04-26T15:54:23.363Z,27.38
2018-04-26T15:57:02.745Z,27.31
2018-04-26T15:59:41.938Z,27.32
2018-04-26T16:02:34.928Z,27.15
2018-04-26T16:05:19.887Z,26.80
2018-04-26T16:11:20.232Z,27.01
2018-04-26T16:14:05.788Z,26.97
2018-04-26T16:16:54.524Z,26.97
2018-04-26T16:19:39.511Z,27.09
2018-04-26T16:22:25.685Z,26.78
2018-04-26T16:25:05.076Z,26.73
2018-04-26T16:27:44.372Z,26.86
2018-04-26T16:30:23.696Z,26.82
2018-04-26T16:33:05.987Z,26.85
2018-04-26T16:35:45.300Z,26.68
2018-04-26T16:38:24.601Z,26.75
2018-04-26T16:40:52.188Z,26.77
2018-04-26T16:43:19.740Z,26.78
2018-04-26T16:45:47.265Z,26.64
2018-04-26T16:48:14.800Z,26.71
2018-04-26T16:50:42.362Z,26.58
2018-04-26T16:53:09.899Z,26.34
2018-04-26T16:55:37.434Z,25.93
2018-04-26T16:58:04.978Z,25.62
2018-04-26T17:00:32.568Z,25.29
2018-04-26T17:03:00.146Z,25.22
2018-04-26T17:05:27.675Z,25.11
2018-04-26T17:07:55.208Z,25.06
2018-04-26T17:10:22.840Z,24.91
2018-04-26T17:12:51.468Z,24.75
2018-04-26T17:15:19.163Z,24.65
2018-04-26T17:17:46.649Z,24.68
2018-04-26T17:20:14.189Z,24.55
2018-04-26T17:22:41.727Z,24.70
2018-04-26T17:25:09.319Z,24.45
2018-04-26T17:27:36.861Z,24.42
2018-04-26T17:30:06.296Z,24.42
2018-04-26T17:32:33.851Z,24.37
2018-04-26T17:35:01.389Z,24.33
2018-04-26T17:37:28.919Z,24.27
2018-04-26T17:39:56.495Z,24.14
2018-04-26T17:42:24.130Z,24.09
2018-04-26T17:44:51.690Z,24.02
2018-04-26T17:47:19.300Z,24.04
2018-04-26T17:49:46.839Z,24.02
2018-04-26T17:52:14.432Z,24.05
2018-04-26T17:54:42.020Z,23.99
2018-04-26T17:57:09.546Z,23.98
2018-04-26T17:59:37.090Z,23.87
2018-04-26T18:02:04.625Z,23.89
2018-04-26T18:04:32.212Z,23.86
2018-04-26T18:06:59.785Z,23.67
2018-04-26T18:09:27.450Z,23.73
2018-04-26T18:11:54.999Z,23.72
2018-04-26T18:14:22.557Z,23.71
2018-04-26T18:16:50.447Z,23.75
2018-04-26T18:19:21.060Z,23.63
2018-04-26T18:21:48.738Z,23.57
2018-04-26T18:24:16.287Z,23.41
2018-04-26T18:26:44.717Z,23.25
2018-04-26T18:29:12.274Z,23.15
2018-04-26T18:31:39.874Z,23.22
2018-04-26T18:34:07.470Z,23.34
2018-04-26T18:36:35.141Z,23.26
2018-04-26T18:39:02.712Z,23.10
2018-04-26T18:41:30.397Z,23.05
2018-04-26T18:43:58.003Z,23.02
2018-04-26T18:46:25.543Z,23.01
2018-04-26T18:48:53.078Z,22.80
2018-04-26T18:51:20.705Z,22.57
2018-04-26T18:53:48.206Z,22.42
2018-04-26T18:56:15.735Z,22.45
2018-04-26T18:58:43.279Z,22.48
2018-04-26T19:01:10.808Z,22.38
2018-04-26T19:03:38.344Z,22.28
2018-04-26T19:06:05.877Z,22.37
2018-04-26T19:08:33.425Z,22.33
2018-04-26T19:11:00.953Z,22.41
2018-04-26T19:13:28.496Z,22.45
2018-04-26T19:15:56.064Z,22.45
2018-04-26T19:18:23.648Z,22.45
2018-04-26T19:20:51.321Z,22.52
2018-04-26T19:23:18.860Z,22.46
2018-04-26T19:25:46.397Z,22.38
2018-04-26T19:28:13.965Z,22.13
2018-04-26T19:30:41.498Z,21.91
2018-04-26T19:33:09.043Z,21.82
2018-04-26T19:35:36.577Z,21.84
2018-04-26T19:38:04.159Z,21.74
2018-04-26T19:40:31.720Z,21.59
2018-04-26T19:42:59.268Z,21.48
2018-04-26T19:45:26.801Z,21.25
2018-04-26T19:47:55.096Z,21.21
2018-04-26T19:50:22.631Z,21.25
2018-04-26T19:52:50.186Z,21.05
2018-04-26T19:55:17.729Z,21.15
2018-04-26T19:57:45.354Z,21.10
2018-04-26T20:00:12.957Z,21.18
2018-04-26T20:02:40.495Z,21.00
2018-04-26T20:05:08.047Z,21.07
2018-04-26T20:07:35.576Z,20.92
2018-04-26T20:10:03.129Z,21.00
2018-04-26T20:12:30.663Z,20.96
2018-04-26T20:14:58.203Z,20.92
2018-04-26T20:17:25.736Z,21.02
2018-04-26T20:19:53.280Z,20.99
2018-04-26T20:22:20.836Z,21.03
2018-04-26T20:24:48.406Z,20.95
2018-04-26T20:27:15.955Z,20.92
2018-04-26T20:29:43.491Z,21.01
2018-04-26T20:32:11.096Z,21.20
2018-04-26T20:34:38.631Z,21.17
2018-04-26T20:37:06.163Z,20.98
2018-04-26T20:39:33.699Z,20.56
2018-04-26T20:42:01.267Z,20.62
2018-04-26T20:44:40.465Z,20.56
2018-04-26T20:47:08.099Z,20.73
2018-04-26T20:49:35.656Z,20.86
2018-04-26T20:52:03.228Z,20.94
2018-04-26T20:54:30.755Z,20.91
2018-04-26T20:56:58.331Z,20.95
2018-04-26T20:59:26.708Z,20.95
2018-04-26T21:01:54.253Z,21.01
2018-04-26T21:04:21.841Z,20.99
2018-04-26T21:06:49.390Z,21.17
2018-04-26T21:09:16.976Z,21.15
2018-04-26T21:11:44.559Z,21.10
2018-04-26T21:14:12.137Z,21.11
2018-04-26T21:16:39.741Z,20.84
2018-04-26T21:19:07.313Z,20.47
2018-04-26T21:21:34.852Z,20.41
2018-04-26T21:24:02.384Z,20.34
2018-04-26T21:26:29.950Z,20.17
2018-04-26T21:28:57.492Z,20.28
2018-04-26T21:31:25.084Z,20.34
2018-04-26T21:33:52.620Z,20.24
2018-04-26T21:36:20.160Z,20.33
2018-04-26T21:38:47.724Z,20.25
2018-04-26T21:41:16.113Z,20.30
2018-04-26T21:43:43.712Z,20.33
2018-04-26T21:46:12.187Z,20.25
2018-04-26T21:48:39.781Z,19.94
2018-04-26T21:51:13.171Z,20.11
2018-04-26T21:53:46.332Z,20.25
2018-04-26T21:56:19.419Z,20.27
2018-04-26T21:58:52.471Z,20.21
2018-04-26T22:01:25.511Z,20.11
2018-04-26T22:03:56.436Z,20.20
2018-04-26T22:06:23.970Z,20.11
2018-04-26T22:08:51.503Z,20.12
2018-04-26T22:11:19.088Z,20.11
2018-04-26T22:13:46.624Z,20.01
2018-04-26T22:16:14.166Z,19.84
2018-04-26T22:18:41.704Z,19.39
2018-04-26T22:21:09.240Z,19.29
2018-04-26T22:23:36.871Z,19.49
2018-04-26T22:26:04.471Z,19.51
2018-04-26T22:28:32.015Z,19.48
2018-04-26T22:30:59.604Z,19.36
2018-04-26T22:33:27.144Z,19.20
2018-04-26T22:35:54.725Z,19.03
2018-04-26T22:38:22.288Z,19.01
2018-04-26T22:40:49.826Z,18.86
2018-04-26T22:43:17.363Z,18.69
2018-04-26T22:45:44.902Z,18.78
2018-04-26T22:48:12.439Z,18.60
2018-04-26T22:50:40.036Z,18.54
2018-04-26T22:53:07.572Z,18.55
2018-04-26T22:55:35.202Z,18.88
2018-04-26T22:58:02.741Z,18.90
2018-04-26T23:00:30.331Z,19.04
2018-04-26T23:02:57.918Z,19.08
2018-04-26T23:05:25.475Z,19.06
2018-04-26T23:07:53.008Z,19.02
2018-04-26T23:10:20.544Z,19.11
2018-04-26T23:12:48.083Z,19.16
2018-04-26T23:15:15.631Z,19.12
2018-04-26T23:17:43.160Z,19.07
2018-04-26T23:20:10.697Z,19.15
2018-04-26T23:22:38.264Z,19.07
2018-04-26T23:25:05.801Z,19.00
2018-04-26T23:27:33.345Z,19.08
2018-04-26T23:30:00.926Z,19.16
2018-04-26T23:32:28.475Z,19.23
2018-04-26T23:34:56.011Z,19.08
2018-04-26T23:37:23.567Z,18.94
2018-04-26T23:39:51.105Z,19.05
2018-04-26T23:42:18.685Z,19.04
2018-04-26T23:44:46.219Z,18.91
2018-04-26T23:47:13.761Z,19.00
2018-04-26T23:49:41.344Z,19.02
2018-04-26T23:52:08.924Z,19.05
2018-04-26T23:54:36.485Z,19.12
2018-04-26T23:57:04.025Z,19.01
2018-04-26T23:59:31.574Z,18.93
